createdAt,value
2018-11-01T00:00:50.999Z,73.93
2018-11-01T00:03:18.481Z,74.14
2018-11-01T00:05:45.941Z,74.38
2018-11-01T00:08:13.393Z,74.27
2018-11-01T00:10:40.939Z,74.16
2018-11-01T00:13:09.258Z,74.20
2018-11-01T00:15:36.695Z,74.47
2018-11-01T00:18:04.128Z,74.54
2018-11-01T00:20:31.694Z,74.24
2018-11-01T00:22:59.350Z,73.96
2018-11-01T00:25:26.907Z,74.01
2018-11-01T00:27:54.385Z,74.03
2018-11-01T00:30:21.833Z,74.01
2018-11-01T00:32:50.194Z,74.18
2018-11-01T00:35:17.627Z,74.18
2018-11-01T00:37:45.047Z,74.04
2018-11-01T00:40:12.528Z,73.81
2018-11-01T00:42:40.059Z,73.82
2018-11-01T00:45:07.516Z,73.86
2018-11-01T00:47:34.973Z,73.85
2018-11-01T00:50:02.423Z,74.13
2018-11-01T00:52:30.757Z,74.02
2018-11-01T00:54:58.510Z,74.27
2018-11-01T00:57:25.991Z,74.40
2018-11-01T00:59:53.610Z,74.19
2018-11-01T01:02:21.322Z,73.92
2018-11-01T01:04:48.767Z,73.65
2018-11-01T01:07:16.203Z,73.26
2018-11-01T01:09:43.637Z,73.16
2018-11-01T01:12:11.077Z,73.23
2018-11-01T01:14:38.728Z,73.10
2018-11-01T01:17:06.157Z,72.92
2018-11-01T01:19:33.594Z,72.59
2018-11-01T01:22:01.042Z,72.38
2018-11-01T01:24:28.557Z,72.60
2018-11-01T01:26:56.022Z,72.92
2018-11-01T01:29:23.498Z,73.14
2018-11-01T01:31:50.940Z,73.38
2018-11-01T01:34:18.386Z,73.40
2018-11-01T01:36:45.810Z,73.60
2018-11-01T01:39:13.248Z,73.56
2018-11-01T01:41:40.709Z,73.59
2018-11-01T01:44:08.142Z,73.09
2018-11-01T01:46:35.568Z,72.84
2018-11-01T01:49:03.007Z,72.97
2018-11-01T01:51:30.572Z,72.96
2018-11-01T01:53:57.999Z,72.95
2018-11-01T01:56:25.544Z,73.07
2018-11-01T01:58:52.970Z,73.11
2018-11-01T02:01:20.399Z,72.99
2018-11-01T02:03:47.823Z,72.95
2018-11-01T02:06:15.264Z,72.97
2018-11-01T02:08:42.695Z,72.92
2018-11-01T02:11:10.135Z,72.78
2018-11-01T02:13:37.563Z,72.65
2018-11-01T02:16:04.991Z,72.50
2018-11-01T02:18:32.527Z,72.61
2018-11-01T02:23:26.711Z,72.93
2018-11-01T02:25:54.150Z,73.02
2018-11-01T02:28:21.740Z,72.84
2018-11-01T02:30:49.195Z,72.81
2018-11-01T02:33:16.694Z,72.91
2018-11-01T02:35:44.218Z,73.35
2018-11-01T02:38:11.753Z,73.52
2018-11-01T02:40:39.166Z,73.94
2018-11-01T02:43:06.621Z,74.75
2018-11-01T02:45:34.100Z,75.33
2018-11-01T02:48:01.551Z,76.13
2018-11-01T02:50:28.967Z,76.83
2018-11-01T02:52:56.443Z,77.57
2018-11-01T02:55:23.883Z,77.95
2018-11-01T02:57:51.317Z,78.28
2018-11-01T03:00:18.733Z,78.47
2018-11-01T03:02:46.151Z,78.33
2018-11-01T03:05:13.582Z,78.07
2018-11-01T03:07:41.916Z,77.96
2018-11-01T03:10:09.340Z,77.60
2018-11-01T03:12:36.793Z,77.70
2018-11-01T03:15:04.921Z,78.11
2018-11-01T03:17:32.349Z,78.46
2018-11-01T03:19:59.781Z,78.35
2018-11-01T03:22:27.209Z,78.29
2018-11-01T03:24:54.641Z,78.20
2018-11-01T03:27:22.060Z,78.22
2018-11-01T03:29:49.499Z,78.18
2018-11-01T03:32:16.935Z,78.21
2018-11-01T03:34:44.364Z,77.82
2018-11-01T03:37:11.807Z,77.61
2018-11-01T03:39:39.250Z,77.79
2018-11-01T03:42:06.671Z,77.87
2018-11-01T03:44:34.121Z,78.00
2018-11-01T03:47:01.611Z,78.24
2018-11-01T03:49:29.099Z,77.70
2018-11-01T03:51:56.681Z,77.15
2018-11-01T03:54:24.162Z,77.12
2018-11-01T03:56:51.535Z,77.02
2018-11-01T03:59:19.025Z,76.93
2018-11-01T04:01:46.515Z,76.82
2018-11-01T04:04:13.952Z,77.29
2018-11-01T04:06:41.379Z,77.42
2018-11-01T04:09:08.832Z,76.97
2018-11-01T04:11:36.306Z,76.65
2018-11-01T04:14:03.747Z,76.28
2018-11-01T04:16:31.236Z,76.25
2018-11-01T04:18:58.672Z,76.32
2018-11-01T04:21:26.091Z,76.46
2018-11-01T04:23:54.328Z,76.37
2018-11-01T04:26:21.774Z,76.25
2018-11-01T04:28:49.241Z,76.04
2018-11-01T04:31:16.647Z,75.99
2018-11-01T04:33:44.247Z,76.08
2018-11-01T04:36:11.774Z,76.43
2018-11-01T04:38:39.196Z,76.49
2018-11-01T04:41:06.656Z,76.44
2018-11-01T04:43:34.807Z,76.47
2018-11-01T04:46:02.228Z,76.75
2018-11-01T04:48:29.644Z,77.05
2018-11-01T04:50:57.095Z,76.91
2018-11-01T04:53:25.272Z,76.73
2018-11-01T04:55:52.697Z,76.73
2018-11-01T04:58:20.122Z,76.88
2018-11-01T05:00:47.546Z,77.12
2018-11-01T05:03:15.706Z,76.76
2018-11-01T05:05:43.267Z,76.66
2018-11-01T05:08:10.776Z,76.22
2018-11-01T05:10:38.195Z,76.12
2018-11-01T05:13:05.626Z,76.00
2018-11-01T05:15:33.056Z,75.94
2018-11-01T05:18:00.497Z,75.90
2018-11-01T05:20:27.953Z,75.91
2018-11-01T05:22:55.383Z,76.55
2018-11-01T05:25:22.833Z,76.50
2018-11-01T05:27:50.273Z,76.84
2018-11-01T05:30:17.730Z,77.09
2018-11-01T05:32:45.191Z,77.24
2018-11-01T05:35:12.648Z,77.42
2018-11-01T05:37:40.096Z,77.25
2018-11-01T05:40:07.683Z,77.07
2018-11-01T05:42:35.130Z,76.83
2018-11-01T05:45:02.761Z,76.95
2018-11-01T05:47:30.249Z,76.78
2018-11-01T05:49:57.681Z,77.22
2018-11-01T05:52:25.146Z,77.55
2018-11-01T05:54:52.998Z,77.09
2018-11-01T05:57:20.438Z,76.89
2018-11-01T05:59:47.945Z,77.12
2018-11-01T06:02:15.347Z,77.64
2018-11-01T06:04:42.771Z,77.36
2018-11-01T06:07:10.259Z,77.87
2018-11-01T06:09:37.840Z,78.21
2018-11-01T06:12:05.316Z,78.39
2018-11-01T06:14:32.763Z,77.85
2018-11-01T06:17:00.303Z,78.02
2018-11-01T06:19:27.779Z,78.43
2018-11-01T06:21:55.939Z,78.41
2018-11-01T06:24:23.434Z,78.49
2018-11-01T06:26:50.867Z,78.44
2018-11-01T06:29:18.914Z,78.55
2018-11-01T06:31:46.436Z,78.78
2018-11-01T06:34:13.868Z,78.72
2018-11-01T06:36:41.317Z,78.79
2018-11-01T06:39:08.742Z,78.45
2018-11-01T06:41:36.218Z,78.62
2018-11-01T06:44:03.820Z,78.48
2018-11-01T06:46:31.294Z,78.70
2018-11-01T06:48:58.771Z,78.82
2018-11-01T06:51:26.201Z,79.01
2018-11-01T06:53:54.354Z,79.16
2018-11-01T06:56:21.965Z,78.95
2018-11-01T06:58:49.503Z,79.19
2018-11-01T07:01:16.994Z,79.21
2018-11-01T07:03:44.418Z,79.32
2018-11-01T07:06:11.961Z,79.46
2018-11-01T07:08:39.475Z,79.28
2018-11-01T07:11:07.023Z,79.50
2018-11-01T07:13:34.611Z,79.89
2018-11-01T07:16:02.101Z,80.07
2018-11-01T07:18:29.602Z,79.43
2018-11-01T07:20:57.049Z,79.77
2018-11-01T07:23:24.537Z,80.01
2018-11-01T07:25:53.510Z,80.05
2018-11-01T07:28:20.854Z,79.98
2018-11-01T07:30:48.359Z,80.04
2018-11-01T07:33:15.785Z,79.73
2018-11-01T07:35:43.883Z,79.93
2018-11-01T07:38:11.803Z,79.91
2018-11-01T07:40:39.254Z,80.03
2018-11-01T07:43:06.721Z,80.00
2018-11-01T07:45:34.215Z,79.81
2018-11-01T07:48:01.655Z,79.80
2018-11-01T07:50:29.091Z,79.98
2018-11-01T07:52:56.615Z,80.15
2018-11-01T07:55:24.043Z,79.94
2018-11-01T07:57:51.565Z,80.08
2018-11-01T08:00:20.232Z,80.12
2018-11-01T08:02:47.841Z,80.10
2018-11-01T08:05:15.326Z,80.20
2018-11-01T08:07:42.897Z,79.96
2018-11-01T08:10:10.362Z,79.58
2018-11-01T08:12:37.944Z,79.37
2018-11-01T08:15:05.390Z,79.60
2018-11-01T08:17:33.072Z,80.00
2018-11-01T08:20:00.952Z,80.15
2018-11-01T08:22:28.446Z,80.12
2018-11-01T08:24:56.004Z,80.04
2018-11-01T08:27:23.492Z,79.96
2018-11-01T08:29:50.963Z,80.00
2018-11-01T08:32:19.118Z,79.44
2018-11-01T08:34:46.575Z,79.07
2018-11-01T08:37:14.015Z,78.83
2018-11-01T08:39:41.497Z,77.44
2018-11-01T08:42:08.982Z,75.36
2018-11-01T08:44:36.456Z,71.79
2018-11-01T08:47:03.962Z,67.61
2018-11-01T08:49:31.449Z,66.62
2018-11-01T08:51:58.903Z,64.65
2018-11-01T08:54:26.339Z,60.71
2018-11-01T08:56:53.797Z,56.50
2018-11-01T08:59:21.320Z,52.51
2018-11-01T09:01:48.816Z,50.92
2018-11-01T09:04:16.405Z,49.67
2018-11-01T09:06:43.918Z,48.93
2018-11-01T09:09:11.591Z,48.91
2018-11-01T09:11:39.158Z,51.79
2018-11-01T09:14:06.590Z,52.87
2018-11-01T09:16:34.064Z,54.03
2018-11-01T09:19:01.507Z,56.23
2018-11-01T09:21:29.025Z,57.55
2018-11-01T09:23:56.704Z,57.76
2018-11-01T09:26:24.147Z,54.54
2018-11-01T09:28:51.668Z,54.83
2018-11-01T09:31:19.115Z,56.42
2018-11-01T09:33:46.570Z,59.52
2018-11-01T09:36:14.578Z,59.22
2018-11-01T09:38:42.036Z,55.04
2018-11-01T09:41:09.588Z,52.24
2018-11-01T09:43:37.188Z,51.48
2018-11-01T09:46:04.730Z,51.06
2018-11-01T09:48:32.314Z,53.65
2018-11-01T09:51:00.375Z,55.85
2018-11-01T09:53:27.813Z,56.86
2018-11-01T09:55:55.414Z,55.40
2018-11-01T09:58:22.742Z,52.87
2018-11-01T10:00:50.238Z,49.33
2018-11-01T10:03:17.640Z,48.34
2018-11-01T10:05:45.156Z,49.24
2018-11-01T10:08:12.590Z,49.69
2018-11-01T10:10:40.035Z,46.97
2018-11-01T10:13:07.494Z,47.33
2018-11-01T10:15:35.278Z,49.61
2018-11-01T10:18:03.472Z,53.02
2018-11-01T10:20:30.787Z,54.13
2018-11-01T10:22:58.324Z,54.65
2018-11-01T10:25:25.941Z,54.52
2018-11-01T10:27:53.336Z,54.99
2018-11-01T10:30:20.942Z,54.86
2018-11-01T10:32:48.440Z,54.27
2018-11-01T10:35:15.945Z,52.72
2018-11-01T10:37:43.512Z,49.50
2018-11-01T10:40:11.059Z,49.26
2018-11-01T10:42:38.509Z,48.87
2018-11-01T10:45:05.993Z,46.65
2018-11-01T10:47:33.665Z,44.51
2018-11-01T10:50:01.611Z,45.73
2018-11-01T10:52:29.118Z,49.50
2018-11-01T10:54:56.547Z,50.49
2018-11-01T10:57:23.995Z,49.01
2018-11-01T10:59:51.527Z,47.17
2018-11-01T11:02:18.962Z,49.53
2018-11-01T11:04:46.483Z,52.43
2018-11-01T11:07:13.921Z,53.87
2018-11-01T11:09:41.358Z,54.44
2018-11-01T11:12:08.775Z,53.63
2018-11-01T11:14:36.400Z,50.45
2018-11-01T11:17:03.731Z,47.12
2018-11-01T11:19:31.167Z,46.79
2018-11-01T11:21:58.666Z,45.21
2018-11-01T11:24:26.142Z,42.19
2018-11-01T11:26:53.700Z,41.46
2018-11-01T11:29:21.334Z,42.55
2018-11-01T11:31:48.972Z,43.50
2018-11-01T11:34:16.433Z,44.03
2018-11-01T11:36:44.452Z,46.02
2018-11-01T11:39:12.139Z,47.47
2018-11-01T11:41:39.499Z,48.35
2018-11-01T11:44:07.033Z,49.28
2018-11-01T11:46:34.530Z,49.86
2018-11-01T11:49:01.979Z,49.43
2018-11-01T11:51:29.768Z,45.29
2018-11-01T11:53:57.204Z,44.56
2018-11-01T11:56:25.617Z,44.29
2018-11-01T11:58:53.287Z,42.61
2018-11-01T12:01:20.740Z,40.64
2018-11-01T12:03:48.201Z,40.42
2018-11-01T12:06:15.958Z,41.15
2018-11-01T12:08:43.271Z,41.83
2018-11-01T12:11:10.741Z,42.97
2018-11-01T12:13:38.191Z,44.36
2018-11-01T12:16:05.646Z,45.50
2018-11-01T12:18:33.096Z,47.08
2018-11-01T12:21:00.602Z,49.00
2018-11-01T12:23:28.070Z,50.70
2018-11-01T12:25:55.546Z,50.56
2018-11-01T12:28:23.039Z,50.05
2018-11-01T12:30:50.472Z,49.50
2018-11-01T12:33:18.088Z,51.24
2018-11-01T12:35:45.670Z,51.16
2018-11-01T12:38:13.034Z,49.74
2018-11-01T12:40:40.771Z,47.06
2018-11-01T12:43:08.246Z,42.11
2018-11-01T12:45:35.805Z,39.04
2018-11-01T12:48:03.290Z,38.73
2018-11-01T12:50:30.735Z,40.04
2018-11-01T12:52:58.195Z,43.11
2018-11-01T12:55:25.732Z,45.47
2018-11-01T12:57:53.209Z,46.72
2018-11-01T13:00:20.668Z,46.25
2018-11-01T13:02:48.210Z,45.23
2018-11-01T13:05:15.649Z,44.45
2018-11-01T13:07:44.040Z,42.89
2018-11-01T13:10:11.498Z,43.27
2018-11-01T13:12:39.081Z,45.84
2018-11-01T13:15:06.511Z,48.40
2018-11-01T13:17:34.002Z,50.42
2018-11-01T13:20:01.456Z,50.39
2018-11-01T13:22:28.936Z,50.75
2018-11-01T13:24:56.592Z,51.02
2018-11-01T13:27:24.083Z,51.10
2018-11-01T13:29:52.490Z,52.75
2018-11-01T13:32:20.643Z,54.02
2018-11-01T13:34:48.185Z,54.76
2018-11-01T13:37:15.657Z,56.02
2018-11-01T13:39:44.087Z,56.02
2018-11-01T13:42:11.463Z,56.18
2018-11-01T13:44:38.913Z,56.83
2018-11-01T13:47:06.488Z,56.83
2018-11-01T13:49:33.863Z,56.77
2018-11-01T13:52:01.417Z,56.94
2018-11-01T13:54:29.820Z,56.60
2018-11-01T13:56:57.207Z,57.10
2018-11-01T13:59:24.924Z,57.52
2018-11-01T14:01:52.742Z,57.69
2018-11-01T14:04:20.485Z,57.94
2018-11-01T14:06:48.129Z,58.28
2018-11-01T14:09:15.667Z,57.99
2018-11-01T14:11:44.008Z,57.96
2018-11-01T14:14:11.893Z,57.75
2018-11-01T14:16:39.854Z,57.77
2018-11-01T14:19:07.290Z,57.82
2018-11-01T14:21:34.723Z,58.27
2018-11-01T14:24:02.390Z,58.66
2018-11-01T14:26:30.884Z,58.96
2018-11-01T14:28:58.332Z,59.09
2018-11-01T14:31:25.873Z,59.77
2018-11-01T14:33:53.396Z,60.32
2018-11-01T14:36:21.229Z,61.41
2018-11-01T14:38:48.687Z,61.99
2018-11-01T14:41:16.192Z,63.48
2018-11-01T14:43:44.191Z,63.88
2018-11-01T14:46:11.782Z,63.62
2018-11-01T14:48:40.202Z,64.56
2018-11-01T14:51:07.693Z,65.07
2018-11-01T14:53:35.337Z,64.46
2018-11-01T14:56:04.322Z,64.04
2018-11-01T14:58:32.413Z,63.92
2018-11-01T15:00:58.974Z,64.37
2018-11-01T15:03:26.551Z,64.48
2018-11-01T15:05:54.055Z,65.06
2018-11-01T15:08:21.555Z,65.14
2018-11-01T15:10:49.164Z,65.33
2018-11-01T15:13:16.883Z,66.03
2018-11-01T15:15:44.305Z,66.05
2018-11-01T15:18:11.802Z,66.00
2018-11-01T15:20:40.019Z,66.20
2018-11-01T15:23:07.602Z,66.46
2018-11-01T15:25:35.106Z,66.65
2018-11-01T15:28:02.569Z,66.04
2018-11-01T15:30:32.814Z,58.18
2018-11-01T15:33:00.255Z,51.05
2018-11-01T15:35:28.613Z,56.58
2018-11-01T15:37:56.130Z,60.65
2018-11-01T15:40:23.630Z,62.97
2018-11-01T15:42:51.063Z,64.49
2018-11-01T15:45:18.573Z,65.16
2018-11-01T15:47:46.020Z,66.08
2018-11-01T15:50:13.531Z,66.66
2018-11-01T15:52:41.173Z,66.93
2018-11-01T15:55:08.651Z,67.62
2018-11-01T15:57:36.102Z,67.82
2018-11-01T16:00:03.549Z,68.42
2018-11-01T16:02:31.186Z,68.45
2018-11-01T16:04:58.599Z,68.71
2018-11-01T16:07:26.034Z,69.07
2018-11-01T16:09:53.604Z,69.13
2018-11-01T16:12:21.027Z,69.11
2018-11-01T16:14:48.495Z,69.14
2018-11-01T16:17:15.968Z,69.53
2018-11-01T16:19:43.526Z,69.97
2018-11-01T16:22:10.922Z,70.03
2018-11-01T16:24:38.382Z,69.99
2018-11-01T16:27:05.870Z,69.91
2018-11-01T16:29:33.390Z,69.89
2018-11-01T16:32:01.108Z,69.79
2018-11-01T16:34:28.844Z,69.87
2018-11-01T16:36:56.289Z,69.78
2018-11-01T16:39:23.729Z,69.92
2018-11-01T16:41:51.188Z,69.98
2018-11-01T16:44:18.635Z,69.84
2018-11-01T16:46:46.063Z,69.76
2018-11-01T16:49:13.538Z,69.84
2018-11-01T16:51:40.988Z,69.96
2018-11-01T16:54:08.428Z,69.79
2018-11-01T16:56:35.855Z,69.67
2018-11-01T16:59:03.611Z,69.49
2018-11-01T17:01:31.120Z,69.29
2018-11-01T17:03:58.579Z,69.91
2018-11-01T17:06:26.020Z,69.61
2018-11-01T17:08:53.475Z,69.60
2018-11-01T17:11:20.922Z,69.70
2018-11-01T17:13:48.394Z,69.76
2018-11-01T17:16:15.849Z,69.42
2018-11-01T17:18:43.664Z,69.28
2018-11-01T17:21:11.692Z,69.15
2018-11-01T17:23:39.988Z,69.41
2018-11-01T17:26:08.354Z,69.82
2018-11-01T17:28:36.797Z,70.02
2018-11-01T17:31:05.111Z,70.29
2018-11-01T17:33:33.614Z,70.13
2018-11-01T17:36:01.439Z,70.16
2018-11-01T17:38:28.962Z,70.05
2018-11-01T17:40:56.445Z,69.86
2018-11-01T17:43:23.958Z,69.40
2018-11-01T17:45:51.431Z,69.07
2018-11-01T17:48:19.030Z,68.95
2018-11-01T17:50:46.471Z,69.03
2018-11-01T17:53:13.961Z,68.93
2018-11-01T17:55:41.450Z,69.08
2018-11-01T17:58:08.936Z,69.28
2018-11-01T18:00:36.377Z,69.24
2018-11-01T18:03:03.896Z,69.23
2018-11-01T18:05:31.346Z,69.02
2018-11-01T18:07:58.973Z,68.85
2018-11-01T18:10:26.429Z,68.87
2018-11-01T18:12:53.890Z,68.87
2018-11-01T18:15:21.323Z,68.83
2018-11-01T18:17:48.783Z,69.01
2018-11-01T18:20:16.245Z,68.83
2018-11-01T18:22:43.693Z,68.88
2018-11-01T18:25:11.151Z,68.81
2018-11-01T18:27:38.611Z,68.63
2018-11-01T18:30:06.273Z,68.57
2018-11-01T18:32:33.870Z,68.36
2018-11-01T18:35:01.223Z,68.20
2018-11-01T18:37:28.768Z,68.05
2018-11-01T18:39:56.292Z,68.02
2018-11-01T18:42:23.780Z,67.79
2018-11-01T18:44:51.214Z,67.75
2018-11-01T18:47:18.703Z,67.90
2018-11-01T18:49:46.160Z,67.77
2018-11-01T18:52:13.623Z,67.55
2018-11-01T18:54:41.077Z,67.70
2018-11-01T18:57:08.640Z,67.88
2018-11-01T18:59:36.199Z,68.07
2018-11-01T19:02:03.649Z,67.87
2018-11-01T19:04:31.107Z,68.03
2018-11-01T19:06:58.641Z,68.05
2018-11-01T19:09:26.043Z,67.81
2018-11-01T19:11:53.516Z,67.84
2018-11-01T19:14:21.042Z,67.90
2018-11-01T19:16:48.451Z,67.99
2018-11-01T19:19:15.904Z,68.02
2018-11-01T19:21:43.412Z,68.04
2018-11-01T19:24:10.848Z,68.09
2018-11-01T19:26:38.438Z,68.16
2018-11-01T19:29:05.836Z,68.20
2018-11-01T19:31:33.350Z,68.25
2018-11-01T19:34:00.989Z,68.23
2018-11-01T19:36:28.663Z,68.42
2018-11-01T19:38:56.153Z,68.36
2018-11-01T19:41:24.806Z,68.24
2018-11-01T19:43:53.352Z,68.04
2018-11-01T19:46:20.787Z,68.04
2018-11-01T19:48:48.262Z,68.02
2018-11-01T19:51:15.717Z,68.09
2018-11-01T19:53:43.154Z,68.07
2018-11-01T19:56:10.601Z,68.12
2018-11-01T19:58:38.071Z,68.27
2018-11-01T20:01:05.512Z,68.24
2018-11-01T20:03:33.110Z,68.35
2018-11-01T20:06:00.596Z,68.26
2018-11-01T20:08:28.121Z,68.46
2018-11-01T20:10:55.554Z,68.67
2018-11-01T20:13:23.133Z,68.89
2018-11-01T20:15:50.669Z,68.97
2018-11-01T20:18:18.100Z,69.10
2018-11-01T20:20:45.569Z,69.22
2018-11-01T20:23:13.057Z,69.30
2018-11-01T20:25:40.794Z,69.40
2018-11-01T20:28:08.230Z,69.48
2018-11-01T20:30:35.878Z,69.53
2018-11-01T20:33:03.520Z,69.53
2018-11-01T20:35:30.974Z,69.77
2018-11-01T20:37:58.467Z,69.57
2018-11-01T20:40:25.878Z,69.39
2018-11-01T20:42:53.456Z,69.35
2018-11-01T20:45:20.940Z,69.59
2018-11-01T20:47:48.433Z,69.52
2018-11-01T20:50:15.995Z,69.23
2018-11-01T20:52:43.410Z,69.13
2018-11-01T20:55:10.977Z,69.16
2018-11-01T20:57:38.517Z,69.38
2018-11-01T21:00:06.004Z,69.48
2018-11-01T21:02:33.480Z,69.40
2018-11-01T21:05:01.062Z,69.38
2018-11-01T21:07:28.461Z,69.50
2018-11-01T21:09:55.992Z,69.52
2018-11-01T21:12:23.440Z,69.67
2018-11-01T21:14:50.899Z,69.85
2018-11-01T21:17:18.340Z,69.99
2018-11-01T21:19:45.771Z,70.20
2018-11-01T21:22:13.252Z,70.22
2018-11-01T21:24:40.726Z,70.28
2018-11-01T21:27:08.169Z,70.30
2018-11-01T21:29:35.885Z,70.42
2018-11-01T21:32:03.742Z,70.51
2018-11-01T21:34:31.228Z,70.65
2018-11-01T21:36:58.891Z,70.85
2018-11-01T21:39:26.333Z,70.97
2018-11-01T21:41:53.869Z,71.02
2018-11-01T21:44:21.300Z,71.42
2018-11-01T21:46:48.783Z,71.53
2018-11-01T21:49:16.311Z,71.71
2018-11-01T21:51:43.839Z,71.96
2018-11-01T21:54:11.282Z,72.21
2018-11-01T21:56:38.851Z,72.57
2018-11-01T21:59:06.351Z,72.93
2018-11-01T22:01:33.878Z,73.12
2018-11-01T22:04:01.324Z,73.25
2018-11-01T22:06:28.818Z,73.36
2018-11-01T22:08:56.249Z,73.73
2018-11-01T22:11:23.783Z,73.84
2018-11-01T22:13:51.223Z,73.86
2018-11-01T22:16:20.403Z,74.03
2018-11-01T22:18:47.981Z,73.83
2018-11-01T22:21:15.582Z,73.68
2018-11-01T22:23:43.672Z,73.73
2018-11-01T22:26:11.160Z,73.53
2018-11-01T22:28:38.637Z,73.56
2018-11-01T22:31:06.040Z,73.82
2018-11-01T22:33:33.495Z,74.19
2018-11-01T22:36:00.965Z,74.60
2018-11-01T22:38:29.287Z,74.85
2018-11-01T22:40:56.679Z,74.91
2018-11-01T22:43:24.121Z,74.67
2018-11-01T22:45:51.853Z,74.78
2018-11-01T22:48:19.314Z,74.64
2018-11-01T22:50:46.801Z,74.65
2018-11-01T22:53:14.371Z,74.73
2018-11-01T22:55:41.804Z,74.93
2018-11-01T22:58:09.257Z,74.81
2018-11-01T23:00:36.875Z,74.91
2018-11-01T23:03:04.319Z,74.74
2018-11-01T23:05:31.933Z,74.53
2018-11-01T23:07:59.410Z,74.65
2018-11-01T23:10:26.971Z,74.84
2018-11-01T23:12:54.408Z,74.89
2018-11-01T23:15:21.869Z,74.81
2018-11-01T23:17:49.351Z,75.00
2018-11-01T23:20:16.805Z,75.01
2018-11-01T23:22:44.257Z,74.75
2018-11-01T23:25:11.703Z,74.93
2018-11-01T23:27:39.147Z,74.71
2018-11-01T23:30:06.594Z,74.73
2018-11-01T23:32:34.120Z,74.73
2018-11-01T23:35:01.624Z,74.93
2018-11-01T23:37:35.382Z,74.89
2018-11-01T23:40:08.538Z,74.98
2018-11-01T23:42:41.672Z,75.05
2018-11-01T23:45:14.819Z,75.09
2018-11-01T23:47:47.933Z,75.21
2018-11-01T23:50:15.449Z,75.09
2018-11-01T23:52:42.896Z,75.12
2018-11-01T23:55:10.335Z,74.74
2018-11-01T23:57:37.768Z,74.86
